Airfield :
LOGIN :

Register | Disclaimer

   EN    FR    IT 

 










Legend :    VFR   Marginal VFR   IFR   Intensive IFR   Very Intensive IFR
Visi :
Ceiling :
>= 8 km
>= 3000ft
5 to 8 km
1000 to 3000 ft
1500m to 5 km
500 to 1000 ft
800 to 1500m
200 to 500 ft
< 800m
< 200 ft
Symbols :   Thunderstorms  Fog  Heavy snow  Heavy precipitations  Wind > 20 kt
SIGMETs :     Misc.  Thunderstorms  Icing  Turbulence  Mountain Waves  Volcanic Ashes







- Airport Elevation : 978 ft
- IATA code : LNZ


LOWL - Linz

CURRENT METAR :
  • 161920Z AUTO 31004KT 270V330 9999 FEW150 19/14 Q1012 NOSIG

EXPIRED METARs :
  • 161850Z AUTO 31006KT 9999 FEW120 BKN150 20/14 Q1011 NOSIG
  • 161820Z AUTO 32010KT 9999 BKN140 20/14 Q1011 NOSIG
  • 161750Z 32010KT 9999 FEW050 SCT090 21/14 Q1011 TEMPO -SHRA
  • 161720Z 32008KT 9999 FEW050 23/13 Q1011 TEMPO -SHRA
  • 161650Z 33009KT 9999 FEW050 FEW050CB 25/13 Q1011 TEMPO SHRA

TAF TAF LOWL
Valid from the 16 at 18:00 until the 17 at 18:00 UTC


161715Z 1618/1718 VRB02KT 9999 FEW050 TX25/1715Z TN16/1703Z
PROB30
TEMPO 1618/1621 27012KT SHRA SCT050CB
BECMG 1707/1709 28010KT
PROB30
TEMPO 1710/1717 27015G25KT SHRA SCT040
No reported NOTAMs for that airfield.



MET'MAP, your aeronautical weather chart ! - Copyright ORBIFLY December 2007 - Disclaimer

ORBIFLY MET'MAP TEAM :

Programming & Development : Alexandra Zaïnal
Concept & Development : Baudouin d'Aumeries
Co-Development & Prog : Marc-Olivier Méhu
Technical & hardware support : Manuel Goepfert

Contact : metmap@orbifly.com




SOURCES & CREDITS :

   NOAA